sensor_id;sensor_type;location;lat;lon;timestamp;P1;durP1;ratioP1;P2;durP2;ratioP2
75316;SDS011;63913;51.492;10.368;2023-02-18T00:01:55;4.28;;;1.00;;
75316;SDS011;63913;51.492;10.368;2023-02-18T00:04:20;3.20;;;0.97;;
75316;SDS011;63913;51.492;10.368;2023-02-18T00:06:46;6.63;;;1.17;;
75316;SDS011;63913;51.492;10.368;2023-02-18T00:09:11;4.43;;;1.10;;
75316;SDS011;63913;51.492;10.368;2023-02-18T00:11:37;3.65;;;0.98;;
75316;SDS011;63913;51.492;10.368;2023-02-18T00:14:04;3.83;;;0.90;;
75316;SDS011;63913;51.492;10.368;2023-02-18T00:16:35;2.50;;;1.15;;
75316;SDS011;63913;51.492;10.368;2023-02-18T00:19:01;3.85;;;0.75;;
75316;SDS011;63913;51.492;10.368;2023-02-18T00:21:29;5.75;;;0.82;;
75316;SDS011;63913;51.492;10.368;2023-02-18T00:23:54;4.95;;;1.00;;
75316;SDS011;63913;51.492;10.368;2023-02-18T00:26:20;4.78;;;1.05;;
75316;SDS011;63913;51.492;10.368;2023-02-18T00:28:46;5.65;;;1.23;;
75316;SDS011;63913;51.492;10.368;2023-02-18T00:31:18;2.47;;;0.82;;
75316;SDS011;63913;51.492;10.368;2023-02-18T00:33:52;5.20;;;0.60;;
75316;SDS011;63913;51.492;10.368;2023-02-18T00:36:19;3.63;;;1.00;;
75316;SDS011;63913;51.492;10.368;2023-02-18T00:38:50;5.93;;;1.10;;
75316;SDS011;63913;51.492;10.368;2023-02-18T00:41:19;4.25;;;1.05;;
75316;SDS011;63913;51.492;10.368;2023-02-18T00:43:45;1.63;;;0.80;;
75316;SDS011;63913;51.492;10.368;2023-02-18T00:46:11;2.05;;;0.77;;
75316;SDS011;63913;51.492;10.368;2023-02-18T00:48:36;1.98;;;0.80;;
75316;SDS011;63913;51.492;10.368;2023-02-18T00:51:02;5.20;;;1.05;;
75316;SDS011;63913;51.492;10.368;2023-02-18T00:53:29;7.18;;;0.88;;
75316;SDS011;63913;51.492;10.368;2023-02-18T00:55:55;4.28;;;0.98;;
75316;SDS011;63913;51.492;10.368;2023-02-18T00:58:20;3.70;;;0.95;;
75316;SDS011;63913;51.492;10.368;2023-02-18T01:00:46;1.53;;;1.03;;
75316;SDS011;63913;51.492;10.368;2023-02-18T01:03:12;4.72;;;1.00;;
75316;SDS011;63913;51.492;10.368;2023-02-18T01:05:38;3.55;;;0.82;;
75316;SDS011;63913;51.492;10.368;2023-02-18T01:08:05;5.82;;;1.00;;
75316;SDS011;63913;51.492;10.368;2023-02-18T01:10:32;2.80;;;1.05;;
75316;SDS011;63913;51.492;10.368;2023-02-18T01:12:57;3.70;;;1.15;;
75316;SDS011;63913;51.492;10.368;2023-02-18T01:15:23;7.85;;;1.33;;
75316;SDS011;63913;51.492;10.368;2023-02-18T01:17:48;2.42;;;0.90;;
75316;SDS011;63913;51.492;10.368;2023-02-18T01:20:16;3.80;;;1.10;;
75316;SDS011;63913;51.492;10.368;2023-02-18T01:22:42;1.33;;;0.75;;
75316;SDS011;63913;51.492;10.368;2023-02-18T01:25:08;3.83;;;1.03;;
75316;SDS011;63913;51.492;10.368;2023-02-18T01:27:34;6.72;;;1.17;;
75316;SDS011;63913;51.492;10.368;2023-02-18T01:30:00;3.03;;;1.08;;
75316;SDS011;63913;51.492;10.368;2023-02-18T01:32:25;14.02;;;1.17;;
75316;SDS011;63913;51.492;10.368;2023-02-18T01:34:50;5.45;;;1.17;;
75316;SDS011;63913;51.492;10.368;2023-02-18T01:37:16;6.03;;;1.30;;
75316;SDS011;63913;51.492;10.368;2023-02-18T01:39:41;4.87;;;1.47;;
75316;SDS011;63913;51.492;10.368;2023-02-18T01:42:11;4.10;;;1.60;;
75316;SDS011;63913;51.492;10.368;2023-02-18T01:44:42;4.95;;;1.25;;
75316;SDS011;63913;51.492;10.368;2023-02-18T01:47:08;2.72;;;1.45;;
75316;SDS011;63913;51.492;10.368;2023-02-18T01:49:34;3.70;;;1.37;;
75316;SDS011;63913;51.492;10.368;2023-02-18T01:52:02;5.45;;;1.50;;
75316;SDS011;63913;51.492;10.368;2023-02-18T01:54:32;4.97;;;1.65;;
75316;SDS011;63913;51.492;10.368;2023-02-18T01:57:01;5.10;;;1.30;;
75316;SDS011;63913;51.492;10.368;2023-02-18T01:59:30;7.72;;;1.70;;
75316;SDS011;63913;51.492;10.368;2023-02-18T02:02:01;7.43;;;1.60;;
75316;SDS011;63913;51.492;10.368;2023-02-18T02:04:28;4.55;;;1.58;;
75316;SDS011;63913;51.492;10.368;2023-02-18T02:06:53;5.50;;;1.75;;
75316;SDS011;63913;51.492;10.368;2023-02-18T02:09:21;4.85;;;1.83;;
75316;SDS011;63913;51.492;10.368;2023-02-18T02:12:12;5.22;;;1.80;;
75316;SDS011;63913;51.492;10.368;2023-02-18T02:17:49;9.75;;;3.17;;
75316;SDS011;63913;51.492;10.368;2023-02-18T02:26:15;7.60;;;2.78;;
75316;SDS011;63913;51.492;10.368;2023-02-18T02:31:44;10.65;;;3.53;;
75316;SDS011;63913;51.492;10.368;2023-02-18T02:34:27;7.22;;;3.13;;
75316;SDS011;63913;51.492;10.368;2023-02-18T02:45:43;9.35;;;4.03;;
75316;SDS011;63913;51.492;10.368;2023-02-18T02:53:33;9.55;;;3.63;;
75316;SDS011;63913;51.492;10.368;2023-02-18T02:56:00;16.23;;;4.90;;
75316;SDS011;63913;51.492;10.368;2023-02-18T02:58:27;13.52;;;4.10;;
75316;SDS011;63913;51.492;10.368;2023-02-18T03:01:35;12.70;;;4.57;;
75316;SDS011;63913;51.492;10.368;2023-02-18T03:09:08;13.20;;;5.03;;
75316;SDS011;63913;51.492;10.368;2023-02-18T03:12:05;10.77;;;4.10;;
75316;SDS011;63913;51.492;10.368;2023-02-18T03:17:25;10.63;;;4.80;;
75316;SDS011;63913;51.492;10.368;2023-02-18T03:20:12;11.88;;;5.18;;
75316;SDS011;63913;51.492;10.368;2023-02-18T03:22:45;16.90;;;5.78;;
75316;SDS011;63913;51.492;10.368;2023-02-18T03:25:13;12.95;;;5.03;;
75316;SDS011;63913;51.492;10.368;2023-02-18T03:27:49;16.20;;;6.00;;
75316;SDS011;63913;51.492;10.368;2023-02-18T03:31:01;12.70;;;5.72;;
75316;SDS011;63913;51.492;10.368;2023-02-18T03:33:10;19.75;;;6.85;;
75316;SDS011;63913;51.492;10.368;2023-02-18T03:35:42;14.32;;;5.82;;
75316;SDS011;63913;51.492;10.368;2023-02-18T03:38:11;15.98;;;6.07;;
75316;SDS011;63913;51.492;10.368;2023-02-18T03:40:42;12.65;;;6.15;;
75316;SDS011;63913;51.492;10.368;2023-02-18T03:43:08;15.10;;;6.97;;
75316;SDS011;63913;51.492;10.368;2023-02-18T03:45:34;14.77;;;6.70;;
75316;SDS011;63913;51.492;10.368;2023-02-18T03:47:59;14.27;;;6.22;;
75316;SDS011;63913;51.492;10.368;2023-02-18T03:50:24;18.42;;;6.85;;
75316;SDS011;63913;51.492;10.368;2023-02-18T03:52:50;17.10;;;6.47;;
75316;SDS011;63913;51.492;10.368;2023-02-18T03:55:15;14.65;;;6.10;;
75316;SDS011;63913;51.492;10.368;2023-02-18T03:57:41;17.42;;;6.90;;
75316;SDS011;63913;51.492;10.368;2023-02-18T04:00:06;14.30;;;6.53;;
75316;SDS011;63913;51.492;10.368;2023-02-18T04:02:38;16.55;;;6.80;;
75316;SDS011;63913;51.492;10.368;2023-02-18T04:05:03;17.27;;;6.53;;
75316;SDS011;63913;51.492;10.368;2023-02-18T04:07:29;16.42;;;6.30;;
75316;SDS011;63913;51.492;10.368;2023-02-18T04:09:54;14.80;;;6.70;;
75316;SDS011;63913;51.492;10.368;2023-02-18T04:12:19;15.70;;;6.23;;
75316;SDS011;63913;51.492;10.368;2023-02-18T04:14:45;16.87;;;6.40;;
75316;SDS011;63913;51.492;10.368;2023-02-18T04:17:10;17.63;;;5.70;;
75316;SDS011;63913;51.492;10.368;2023-02-18T04:19:35;12.47;;;5.97;;
75316;SDS011;63913;51.492;10.368;2023-02-18T04:22:01;14.48;;;5.53;;
75316;SDS011;63913;51.492;10.368;2023-02-18T04:24:27;13.77;;;5.53;;
75316;SDS011;63913;51.492;10.368;2023-02-18T04:26:52;15.02;;;5.40;;
75316;SDS011;63913;51.492;10.368;2023-02-18T04:29:18;13.95;;;5.97;;
75316;SDS011;63913;51.492;10.368;2023-02-18T04:31:43;12.65;;;5.78;;
75316;SDS011;63913;51.492;10.368;2023-02-18T04:34:08;11.32;;;4.70;;
75316;SDS011;63913;51.492;10.368;2023-02-18T04:36:34;10.70;;;5.20;;
75316;SDS011;63913;51.492;10.368;2023-02-18T04:38:59;12.70;;;5.25;;
75316;SDS011;63913;51.492;10.368;2023-02-18T04:41:24;10.88;;;4.65;;
75316;SDS011;63913;51.492;10.368;2023-02-18T04:43:50;10.05;;;4.68;;
75316;SDS011;63913;51.492;10.368;2023-02-18T04:46:16;10.82;;;5.22;;
75316;SDS011;63913;51.492;10.368;2023-02-18T04:48:41;9.85;;;4.80;;
75316;SDS011;63913;51.492;10.368;2023-02-18T04:51:07;11.13;;;5.05;;
75316;SDS011;63913;51.492;10.368;2023-02-18T04:53:32;9.10;;;4.70;;
75316;SDS011;63913;51.492;10.368;2023-02-18T04:55:58;9.48;;;4.60;;
75316;SDS011;63913;51.492;10.368;2023-02-18T04:58:23;10.07;;;4.43;;
75316;SDS011;63913;51.492;10.368;2023-02-18T05:00:49;8.55;;;4.53;;
75316;SDS011;63913;51.492;10.368;2023-02-18T05:03:14;10.18;;;4.70;;
75316;SDS011;63913;51.492;10.368;2023-02-18T05:05:40;9.10;;;4.25;;
75316;SDS011;63913;51.492;10.368;2023-02-18T05:08:06;8.85;;;4.03;;
75316;SDS011;63913;51.492;10.368;2023-02-18T05:10:32;9.32;;;4.55;;
75316;SDS011;63913;51.492;10.368;2023-02-18T05:12:58;9.60;;;4.50;;
75316;SDS011;63913;51.492;10.368;2023-02-18T05:15:23;8.38;;;3.97;;
75316;SDS011;63913;51.492;10.368;2023-02-18T05:17:49;8.63;;;4.05;;
75316;SDS011;63913;51.492;10.368;2023-02-18T05:20:14;7.85;;;4.18;;
75316;SDS011;63913;51.492;10.368;2023-02-18T05:22:40;7.55;;;3.50;;
75316;SDS011;63913;51.492;10.368;2023-02-18T05:25:05;7.03;;;3.05;;
75316;SDS011;63913;51.492;10.368;2023-02-18T05:27:31;7.45;;;4.00;;
75316;SDS011;63913;51.492;10.368;2023-02-18T05:29:56;8.60;;;3.83;;
75316;SDS011;63913;51.492;10.368;2023-02-18T05:32:22;7.43;;;3.50;;
75316;SDS011;63913;51.492;10.368;2023-02-18T05:34:48;7.47;;;3.63;;
75316;SDS011;63913;51.492;10.368;2023-02-18T05:37:13;7.80;;;3.55;;
75316;SDS011;63913;51.492;10.368;2023-02-18T05:39:39;7.63;;;3.88;;
75316;SDS011;63913;51.492;10.368;2023-02-18T05:42:05;8.98;;;3.88;;
75316;SDS011;63913;51.492;10.368;2023-02-18T05:44:30;7.30;;;3.70;;
75316;SDS011;63913;51.492;10.368;2023-02-18T05:46:57;8.68;;;3.97;;
75316;SDS011;63913;51.492;10.368;2023-02-18T05:49:23;8.30;;;4.13;;
75316;SDS011;63913;51.492;10.368;2023-02-18T05:51:49;10.45;;;3.95;;
75316;SDS011;63913;51.492;10.368;2023-02-18T05:54:14;9.35;;;4.38;;
75316;SDS011;63913;51.492;10.368;2023-02-18T05:56:40;9.32;;;4.05;;
75316;SDS011;63913;51.492;10.368;2023-02-18T05:59:05;7.38;;;3.92;;
75316;SDS011;63913;51.492;10.368;2023-02-18T06:01:31;7.97;;;3.90;;
75316;SDS011;63913;51.492;10.368;2023-02-18T06:03:56;8.77;;;3.95;;
75316;SDS011;63913;51.492;10.368;2023-02-18T06:06:21;7.43;;;3.42;;
75316;SDS011;63913;51.492;10.368;2023-02-18T06:08:47;7.00;;;3.65;;
75316;SDS011;63913;51.492;10.368;2023-02-18T06:11:12;7.88;;;3.40;;
75316;SDS011;63913;51.492;10.368;2023-02-18T06:13:38;9.13;;;4.03;;
75316;SDS011;63913;51.492;10.368;2023-02-18T06:16:03;8.07;;;3.90;;
75316;SDS011;63913;51.492;10.368;2023-02-18T06:18:29;6.95;;;3.13;;
75316;SDS011;63913;51.492;10.368;2023-02-18T06:20:54;7.53;;;3.95;;
75316;SDS011;63913;51.492;10.368;2023-02-18T06:23:19;6.97;;;3.83;;
75316;SDS011;63913;51.492;10.368;2023-02-18T06:25:47;6.43;;;3.77;;
75316;SDS011;63913;51.492;10.368;2023-02-18T06:28:14;7.63;;;3.38;;
75316;SDS011;63913;51.492;10.368;2023-02-18T06:30:39;6.57;;;3.40;;
75316;SDS011;63913;51.492;10.368;2023-02-18T06:33:04;6.43;;;3.33;;
75316;SDS011;63913;51.492;10.368;2023-02-18T06:35:30;5.28;;;3.38;;
75316;SDS011;63913;51.492;10.368;2023-02-18T06:37:55;7.28;;;3.65;;
75316;SDS011;63913;51.492;10.368;2023-02-18T06:40:20;5.73;;;3.17;;
75316;SDS011;63913;51.492;10.368;2023-02-18T06:42:46;7.95;;;3.40;;
75316;SDS011;63913;51.492;10.368;2023-02-18T06:45:11;6.75;;;3.22;;
75316;SDS011;63913;51.492;10.368;2023-02-18T06:47:37;6.95;;;3.58;;
75316;SDS011;63913;51.492;10.368;2023-02-18T06:50:02;7.97;;;3.65;;
75316;SDS011;63913;51.492;10.368;2023-02-18T06:52:28;5.20;;;2.80;;
75316;SDS011;63913;51.492;10.368;2023-02-18T06:54:54;6.13;;;3.38;;
75316;SDS011;63913;51.492;10.368;2023-02-18T06:57:20;6.93;;;3.85;;
75316;SDS011;63913;51.492;10.368;2023-02-18T06:59:45;6.03;;;3.00;;
75316;SDS011;63913;51.492;10.368;2023-02-18T07:02:11;6.43;;;3.00;;
75316;SDS011;63913;51.492;10.368;2023-02-18T07:04:37;7.95;;;2.60;;
75316;SDS011;63913;51.492;10.368;2023-02-18T07:07:02;5.20;;;2.58;;
75316;SDS011;63913;51.492;10.368;2023-02-18T07:09:27;5.87;;;3.03;;
75316;SDS011;63913;51.492;10.368;2023-02-18T07:11:53;3.83;;;2.30;;
75316;SDS011;63913;51.492;10.368;2023-02-18T07:14:18;4.97;;;2.00;;
75316;SDS011;63913;51.492;10.368;2023-02-18T07:16:43;3.27;;;1.83;;
75316;SDS011;63913;51.492;10.368;2023-02-18T07:19:09;3.33;;;1.90;;
75316;SDS011;63913;51.492;10.368;2023-02-18T07:21:34;2.70;;;1.70;;
75316;SDS011;63913;51.492;10.368;2023-02-18T07:23:59;3.33;;;1.98;;
75316;SDS011;63913;51.492;10.368;2023-02-18T07:26:25;3.60;;;1.43;;
75316;SDS011;63913;51.492;10.368;2023-02-18T07:28:50;2.43;;;1.73;;
75316;SDS011;63913;51.492;10.368;2023-02-18T07:31:15;1.47;;;1.10;;
75316;SDS011;63913;51.492;10.368;2023-02-18T07:33:41;1.30;;;1.20;;
75316;SDS011;63913;51.492;10.368;2023-02-18T07:36:07;1.83;;;1.13;;
75316;SDS011;63913;51.492;10.368;2023-02-18T07:38:32;1.85;;;0.95;;
75316;SDS011;63913;51.492;10.368;2023-02-18T07:40:58;1.20;;;1.00;;
75316;SDS011;63913;51.492;10.368;2023-02-18T07:43:23;1.83;;;1.20;;
75316;SDS011;63913;51.492;10.368;2023-02-18T07:45:49;2.33;;;0.93;;
75316;SDS011;63913;51.492;10.368;2023-02-18T07:48:14;1.75;;;1.20;;
75316;SDS011;63913;51.492;10.368;2023-02-18T07:50:41;1.95;;;1.40;;
75316;SDS011;63913;51.492;10.368;2023-02-18T07:53:08;0.68;;;0.68;;
75316;SDS011;63913;51.492;10.368;2023-02-18T07:55:35;1.02;;;0.50;;
75316;SDS011;63913;51.492;10.368;2023-02-18T07:58:20;1.00;;;0.90;;
75316;SDS011;63913;51.492;10.368;2023-02-18T08:00:48;1.85;;;0.95;;
75316;SDS011;63913;51.492;10.368;2023-02-18T08:03:18;0.88;;;0.88;;
75316;SDS011;63913;51.492;10.368;2023-02-18T08:05:46;0.70;;;0.70;;
75316;SDS011;63913;51.492;10.368;2023-02-18T08:08:13;0.85;;;0.60;;
75316;SDS011;63913;51.492;10.368;2023-02-18T08:10:41;0.40;;;0.40;;
75316;SDS011;63913;51.492;10.368;2023-02-18T08:13:06;0.70;;;0.70;;
75316;SDS011;63913;51.492;10.368;2023-02-18T08:15:32;0.82;;;0.52;;
75316;SDS011;63913;51.492;10.368;2023-02-18T08:17:57;2.33;;;1.17;;
75316;SDS011;63913;51.492;10.368;2023-02-18T08:20:22;1.25;;;0.98;;
75316;SDS011;63913;51.492;10.368;2023-02-18T08:22:48;3.40;;;0.70;;
75316;SDS011;63913;51.492;10.368;2023-02-18T08:25:13;0.67;;;0.67;;
75316;SDS011;63913;51.492;10.368;2023-02-18T08:27:39;0.50;;;0.50;;
75316;SDS011;63913;51.492;10.368;2023-02-18T08:30:04;0.80;;;0.60;;
75316;SDS011;63913;51.492;10.368;2023-02-18T08:32:30;0.25;;;0.25;;
75316;SDS011;63913;51.492;10.368;2023-02-18T08:34:55;0.45;;;0.40;;
75316;SDS011;63913;51.492;10.368;2023-02-18T08:37:21;1.10;;;0.32;;
75316;SDS011;63913;51.492;10.368;2023-02-18T08:39:47;0.30;;;0.30;;
75316;SDS011;63913;51.492;10.368;2023-02-18T08:42:13;0.52;;;0.50;;
75316;SDS011;63913;51.492;10.368;2023-02-18T08:44:38;0.40;;;0.30;;
75316;SDS011;63913;51.492;10.368;2023-02-18T08:47:03;0.20;;;0.20;;
75316;SDS011;63913;51.492;10.368;2023-02-18T08:49:29;1.33;;;1.02;;
75316;SDS011;63913;51.492;10.368;2023-02-18T08:51:54;0.30;;;0.25;;
75316;SDS011;63913;51.492;10.368;2023-02-18T08:54:20;0.20;;;0.20;;
75316;SDS011;63913;51.492;10.368;2023-02-18T08:56:45;0.30;;;0.30;;
75316;SDS011;63913;51.492;10.368;2023-02-18T08:59:10;0.40;;;0.35;;
75316;SDS011;63913;51.492;10.368;2023-02-18T09:01:36;0.55;;;0.40;;
75316;SDS011;63913;51.492;10.368;2023-02-18T09:04:01;0.70;;;0.30;;
75316;SDS011;63913;51.492;10.368;2023-02-18T09:06:27;0.20;;;0.20;;
75316;SDS011;63913;51.492;10.368;2023-02-18T09:08:52;0.10;;;0.10;;
75316;SDS011;63913;51.492;10.368;2023-02-18T09:11:18;0.20;;;0.20;;
75316;SDS011;63913;51.492;10.368;2023-02-18T09:13:43;0.68;;;0.40;;
75316;SDS011;63913;51.492;10.368;2023-02-18T09:16:10;0.40;;;0.40;;
75316;SDS011;63913;51.492;10.368;2023-02-18T09:18:38;0.60;;;0.32;;
75316;SDS011;63913;51.492;10.368;2023-02-18T09:21:05;0.40;;;0.40;;
75316;SDS011;63913;51.492;10.368;2023-02-18T09:23:33;0.30;;;0.28;;
75316;SDS011;63913;51.492;10.368;2023-02-18T09:25:58;0.30;;;0.30;;
75316;SDS011;63913;51.492;10.368;2023-02-18T09:28:24;0.98;;;0.82;;
75316;SDS011;63913;51.492;10.368;2023-02-18T09:30:50;0.57;;;0.30;;
75316;SDS011;63913;51.492;10.368;2023-02-18T09:33:16;0.20;;;0.20;;
75316;SDS011;63913;51.492;10.368;2023-02-18T09:35:42;0.22;;;0.22;;
75316;SDS011;63913;51.492;10.368;2023-02-18T09:38:10;0.30;;;0.30;;
75316;SDS011;63913;51.492;10.368;2023-02-18T09:40:37;0.20;;;0.20;;
75316;SDS011;63913;51.492;10.368;2023-02-18T09:45:37;0.90;;;0.47;;
75316;SDS011;63913;51.492;10.368;2023-02-18T09:48:03;0.82;;;0.50;;
75316;SDS011;63913;51.492;10.368;2023-02-18T09:50:30;0.50;;;0.50;;
75316;SDS011;63913;51.492;10.368;2023-02-18T09:52:58;0.80;;;0.80;;
75316;SDS011;63913;51.492;10.368;2023-02-18T09:57:54;1.35;;;0.57;;
75316;SDS011;63913;51.492;10.368;2023-02-18T10:00:36;0.80;;;0.80;;
75316;SDS011;63913;51.492;10.368;2023-02-18T10:03:04;0.82;;;0.82;;
75316;SDS011;63913;51.492;10.368;2023-02-18T10:05:48;0.82;;;0.80;;
75316;SDS011;63913;51.492;10.368;2023-02-18T10:08:18;0.80;;;0.80;;
75316;SDS011;63913;51.492;10.368;2023-02-18T10:10:48;0.68;;;0.60;;
75316;SDS011;63913;51.492;10.368;2023-02-18T10:13:15;2.28;;;0.93;;
75316;SDS011;63913;51.492;10.368;2023-02-18T10:15:46;0.50;;;0.50;;
75316;SDS011;63913;51.492;10.368;2023-02-18T10:20:47;1.85;;;0.82;;
75316;SDS011;63913;51.492;10.368;2023-02-18T10:23:16;2.30;;;1.10;;
75316;SDS011;63913;51.492;10.368;2023-02-18T10:25:44;2.78;;;1.70;;
75316;SDS011;63913;51.492;10.368;2023-02-18T10:28:12;0.50;;;0.50;;
75316;SDS011;63913;51.492;10.368;2023-02-18T10:30:42;2.15;;;1.45;;
75316;SDS011;63913;51.492;10.368;2023-02-18T10:38:32;1.25;;;0.90;;
75316;SDS011;63913;51.492;10.368;2023-02-18T10:52:15;1.25;;;0.90;;
75316;SDS011;63913;51.492;10.368;2023-02-18T10:54:52;1.73;;;0.88;;
75316;SDS011;63913;51.492;10.368;2023-02-18T10:57:30;1.80;;;0.90;;
75316;SDS011;63913;51.492;10.368;2023-02-18T10:59:58;1.73;;;1.30;;
75316;SDS011;63913;51.492;10.368;2023-02-18T11:02:28;2.70;;;0.95;;
75316;SDS011;63913;51.492;10.368;2023-02-18T11:04:56;1.27;;;1.00;;
75316;SDS011;63913;51.492;10.368;2023-02-18T11:07:33;0.60;;;0.60;;
75316;SDS011;63913;51.492;10.368;2023-02-18T11:10:37;0.60;;;0.60;;
75316;SDS011;63913;51.492;10.368;2023-02-18T11:13:00;6.55;;;3.67;;
75316;SDS011;63913;51.492;10.368;2023-02-18T11:15:28;4.03;;;2.30;;
75316;SDS011;63913;51.492;10.368;2023-02-18T11:17:55;3.05;;;1.40;;
75316;SDS011;63913;51.492;10.368;2023-02-18T11:20:35;0.80;;;0.45;;
75316;SDS011;63913;51.492;10.368;2023-02-18T11:25:30;2.05;;;1.00;;
75316;SDS011;63913;51.492;10.368;2023-02-18T11:27:59;0.98;;;0.63;;
75316;SDS011;63913;51.492;10.368;2023-02-18T11:30:33;0.40;;;0.40;;
75316;SDS011;63913;51.492;10.368;2023-02-18T11:33:05;0.60;;;0.60;;
75316;SDS011;63913;51.492;10.368;2023-02-18T11:35:34;1.15;;;1.00;;
75316;SDS011;63913;51.492;10.368;2023-02-18T11:38:01;0.98;;;0.70;;
75316;SDS011;63913;51.492;10.368;2023-02-18T11:40:32;1.05;;;1.00;;
75316;SDS011;63913;51.492;10.368;2023-02-18T11:43:03;0.90;;;0.77;;
75316;SDS011;63913;51.492;10.368;2023-02-18T11:45:32;1.13;;;0.90;;
75316;SDS011;63913;51.492;10.368;2023-02-18T11:47:59;1.63;;;0.70;;
75316;SDS011;63913;51.492;10.368;2023-02-18T11:50:29;1.52;;;0.80;;
75316;SDS011;63913;51.492;10.368;2023-02-18T11:52:56;0.80;;;0.68;;
75316;SDS011;63913;51.492;10.368;2023-02-18T11:55:25;1.77;;;0.88;;
75316;SDS011;63913;51.492;10.368;2023-02-18T11:58:04;0.60;;;0.60;;
75316;SDS011;63913;51.492;10.368;2023-02-18T12:00:47;0.88;;;0.68;;
75316;SDS011;63913;51.492;10.368;2023-02-18T12:05:56;0.95;;;0.77;;
75316;SDS011;63913;51.492;10.368;2023-02-18T12:08:26;0.60;;;0.60;;
75316;SDS011;63913;51.492;10.368;2023-02-18T12:11:00;0.82;;;0.75;;
75316;SDS011;63913;51.492;10.368;2023-02-18T12:13:36;0.93;;;0.90;;
75316;SDS011;63913;51.492;10.368;2023-02-18T12:19:27;1.58;;;1.20;;
75316;SDS011;63913;51.492;10.368;2023-02-18T12:25:03;1.60;;;1.20;;
75316;SDS011;63913;51.492;10.368;2023-02-18T12:33:31;1.10;;;0.90;;
75316;SDS011;63913;51.492;10.368;2023-02-18T12:36:09;1.65;;;1.15;;
75316;SDS011;63913;51.492;10.368;2023-02-18T12:38:52;2.15;;;1.35;;
75316;SDS011;63913;51.492;10.368;2023-02-18T12:52:36;1.70;;;1.17;;
75316;SDS011;63913;51.492;10.368;2023-02-18T13:06:32;5.28;;;2.80;;
75316;SDS011;63913;51.492;10.368;2023-02-18T13:12:09;1.85;;;1.38;;
75316;SDS011;63913;51.492;10.368;2023-02-18T13:14:59;5.78;;;2.78;;
75316;SDS011;63913;51.492;10.368;2023-02-18T13:17:28;2.92;;;1.73;;
75316;SDS011;63913;51.492;10.368;2023-02-18T13:19:58;1.75;;;1.20;;
75316;SDS011;63913;51.492;10.368;2023-02-18T13:22:27;2.67;;;1.35;;
75316;SDS011;63913;51.492;10.368;2023-02-18T13:24:55;2.00;;;1.63;;
75316;SDS011;63913;51.492;10.368;2023-02-18T13:30:18;2.45;;;1.17;;
75316;SDS011;63913;51.492;10.368;2023-02-18T13:40:41;3.42;;;1.02;;
75316;SDS011;63913;51.492;10.368;2023-02-18T13:43:18;4.68;;;1.85;;
75316;SDS011;63913;51.492;10.368;2023-02-18T13:49:19;8.60;;;6.28;;
75316;SDS011;63913;51.492;10.368;2023-02-18T13:51:44;2.67;;;2.10;;
75316;SDS011;63913;51.492;10.368;2023-02-18T13:56:39;1.88;;;1.17;;
75316;SDS011;63913;51.492;10.368;2023-02-18T13:59:09;1.58;;;0.80;;
75316;SDS011;63913;51.492;10.368;2023-02-18T14:09:49;3.45;;;0.93;;
75316;SDS011;63913;51.492;10.368;2023-02-18T14:12:16;0.85;;;0.70;;
75316;SDS011;63913;51.492;10.368;2023-02-18T14:14:49;1.52;;;1.02;;
75316;SDS011;63913;51.492;10.368;2023-02-18T14:19:52;1.05;;;0.60;;
75316;SDS011;63913;51.492;10.368;2023-02-18T14:25:15;1.50;;;0.80;;
75316;SDS011;63913;51.492;10.368;2023-02-18T14:27:44;1.27;;;0.63;;
75316;SDS011;63913;51.492;10.368;2023-02-18T14:30:23;2.17;;;1.15;;
75316;SDS011;63913;51.492;10.368;2023-02-18T14:32:56;0.75;;;0.52;;
75316;SDS011;63913;51.492;10.368;2023-02-18T14:35:46;0.88;;;0.65;;
75316;SDS011;63913;51.492;10.368;2023-02-18T14:49:17;0.90;;;0.80;;
75316;SDS011;63913;51.492;10.368;2023-02-18T14:51:46;1.23;;;0.80;;
75316;SDS011;63913;51.492;10.368;2023-02-18T14:54:13;1.50;;;1.00;;
75316;SDS011;63913;51.492;10.368;2023-02-18T14:57:15;0.75;;;0.70;;
75316;SDS011;63913;51.492;10.368;2023-02-18T14:59:41;0.73;;;0.60;;
75316;SDS011;63913;51.492;10.368;2023-02-18T15:02:13;2.97;;;0.93;;
75316;SDS011;63913;51.492;10.368;2023-02-18T15:04:43;1.23;;;0.68;;
75316;SDS011;63913;51.492;10.368;2023-02-18T15:07:10;0.70;;;0.70;;
75316;SDS011;63913;51.492;10.368;2023-02-18T15:09:43;0.60;;;0.50;;
75316;SDS011;63913;51.492;10.368;2023-02-18T15:12:14;0.60;;;0.60;;
75316;SDS011;63913;51.492;10.368;2023-02-18T15:14:43;0.63;;;0.60;;
75316;SDS011;63913;51.492;10.368;2023-02-18T15:17:12;0.65;;;0.65;;
75316;SDS011;63913;51.492;10.368;2023-02-18T15:19:42;1.80;;;1.02;;
75316;SDS011;63913;51.492;10.368;2023-02-18T15:22:22;1.83;;;1.17;;
75316;SDS011;63913;51.492;10.368;2023-02-18T15:24:49;1.20;;;0.90;;
75316;SDS011;63913;51.492;10.368;2023-02-18T15:27:23;1.52;;;1.27;;
75316;SDS011;63913;51.492;10.368;2023-02-18T15:29:56;2.08;;;1.20;;
75316;SDS011;63913;51.492;10.368;2023-02-18T15:32:24;4.38;;;1.80;;
75316;SDS011;63913;51.492;10.368;2023-02-18T15:34:58;2.20;;;1.35;;
75316;SDS011;63913;51.492;10.368;2023-02-18T15:37:28;1.50;;;1.40;;
75316;SDS011;63913;51.492;10.368;2023-02-18T15:39:55;2.42;;;1.33;;
75316;SDS011;63913;51.492;10.368;2023-02-18T15:44:51;3.97;;;1.83;;
75316;SDS011;63913;51.492;10.368;2023-02-18T15:47:19;3.55;;;1.98;;
75316;SDS011;63913;51.492;10.368;2023-02-18T15:49:52;3.25;;;1.63;;
75316;SDS011;63913;51.492;10.368;2023-02-18T15:52:27;4.18;;;2.30;;
75316;SDS011;63913;51.492;10.368;2023-02-18T15:54:56;3.38;;;2.10;;
75316;SDS011;63913;51.492;10.368;2023-02-18T15:57:27;2.90;;;1.98;;
75316;SDS011;63913;51.492;10.368;2023-02-18T16:00:56;3.22;;;2.72;;
75316;SDS011;63913;51.492;10.368;2023-02-18T16:05:36;2.35;;;1.50;;
75316;SDS011;63913;51.492;10.368;2023-02-18T16:08:05;3.05;;;1.83;;
75316;SDS011;63913;51.492;10.368;2023-02-18T16:10:52;3.78;;;2.67;;
75316;SDS011;63913;51.492;10.368;2023-02-18T16:13:19;3.70;;;2.30;;
75316;SDS011;63913;51.492;10.368;2023-02-18T16:15:46;2.17;;;1.60;;
75316;SDS011;63913;51.492;10.368;2023-02-18T16:20:53;3.15;;;2.08;;
75316;SDS011;63913;51.492;10.368;2023-02-18T16:23:34;2.65;;;2.35;;
75316;SDS011;63913;51.492;10.368;2023-02-18T16:26:18;2.05;;;1.60;;
75316;SDS011;63913;51.492;10.368;2023-02-18T16:28:45;1.92;;;1.40;;
75316;SDS011;63913;51.492;10.368;2023-02-18T16:31:15;2.38;;;1.27;;
75316;SDS011;63913;51.492;10.368;2023-02-18T16:33:41;5.38;;;1.55;;
75316;SDS011;63913;51.492;10.368;2023-02-18T16:36:09;1.77;;;1.35;;
75316;SDS011;63913;51.492;10.368;2023-02-18T16:38:39;1.90;;;1.30;;
75316;SDS011;63913;51.492;10.368;2023-02-18T16:41:04;2.28;;;1.48;;
75316;SDS011;63913;51.492;10.368;2023-02-18T16:43:30;2.00;;;1.30;;
75316;SDS011;63913;51.492;10.368;2023-02-18T16:45:58;2.35;;;1.23;;
75316;SDS011;63913;51.492;10.368;2023-02-18T16:48:43;1.50;;;1.10;;
75316;SDS011;63913;51.492;10.368;2023-02-18T16:51:12;2.88;;;1.38;;
75316;SDS011;63913;51.492;10.368;2023-02-18T16:53:38;2.28;;;1.15;;
75316;SDS011;63913;51.492;10.368;2023-02-18T16:56:04;1.77;;;1.00;;
75316;SDS011;63913;51.492;10.368;2023-02-18T16:58:36;2.38;;;1.88;;
75316;SDS011;63913;51.492;10.368;2023-02-18T17:01:01;1.70;;;1.50;;
75316;SDS011;63913;51.492;10.368;2023-02-18T17:03:27;1.98;;;1.60;;
75316;SDS011;63913;51.492;10.368;2023-02-18T17:05:52;2.33;;;1.17;;
75316;SDS011;63913;51.492;10.368;2023-02-18T17:08:27;3.03;;;1.83;;
75316;SDS011;63913;51.492;10.368;2023-02-18T17:10:54;3.10;;;1.60;;
75316;SDS011;63913;51.492;10.368;2023-02-18T17:13:28;1.55;;;1.10;;